Time;durP1;ratioP1;P1;durP2;ratioP2;P2;SDS_P1;SDS_P2;PMS_P1;PMS_P2;Temp;Humidity;BMP_temperature;BMP_pressure;BME280_temperature;BME280_humidity;BME280_pressure;Samples;Min_cycle;Max_cycle;Signal;HPM_P1;HPM_P2
2022/07/04 00:01:37;;;;;;;1.38;0.43;;;;;;;-143.79;100.00;62634.88;5034896;28;20037;-58
2022/07/04 00:04:03;;;;;;;0.85;0.30;;;24.40;71.50;;;-143.79;100.00;62634.88;5034921;28;20468;-59
2022/07/04 00:06:29;;;;;;;0.82;0.38;;;;;;;-143.79;100.00;62634.88;5034741;28;20045;-59
2022/07/04 00:08:55;;;;;;;2.03;0.35;;;25.00;63.00;;;-143.79;100.00;62634.88;5034869;28;20041;-59
2022/07/04 00:11:21;;;;;;;0.93;0.30;;;;;;;-143.79;100.00;62634.88;5034795;28;20034;-59
2022/07/04 00:13:47;;;;;;;3.58;0.60;;;;;;;-143.79;100.00;62634.88;5035081;28;20041;-59
2022/07/04 00:16:13;;;;;;;1.13;0.40;;;;;;;-143.79;100.00;62634.88;5034753;28;20044;-58
2022/07/04 00:18:39;;;;;;;1.88;0.50;;;;;;;-143.79;100.00;62634.88;5034683;28;20488;-59
2022/07/04 00:21:05;;;;;;;1.30;0.40;;;24.90;84.50;;;-143.79;100.00;62634.88;5034665;28;20459;-58
2022/07/04 00:23:31;;;;;;;1.30;0.40;;;;;;;-143.79;100.00;62634.88;5034797;28;20068;-59
2022/07/04 00:25:57;;;;;;;2.40;0.47;;;;;;;-143.79;100.00;62634.88;5034404;28;20056;-58
2022/07/04 00:28:23;;;;;;;1.85;0.80;;;24.20;83.80;;;-143.79;100.00;62634.88;5034432;28;20060;-59
2022/07/04 00:30:49;;;;;;;1.25;0.47;;;24.90;76.40;;;-143.79;100.00;62634.88;5034682;28;20037;-59
2022/07/04 00:33:16;;;;;;;1.23;0.50;;;;;;;-143.79;100.00;62634.88;5034709;28;20029;-59
2022/07/04 00:35:41;;;;;;;2.83;0.40;;;24.30;82.50;;;-143.79;100.00;62634.88;5033192;28;20033;-58
2022/07/04 00:38:07;;;;;;;4.07;0.63;;;;;;;-143.79;100.00;62634.88;5034323;28;20136;-59
2022/07/04 00:40:33;;;;;;;0.68;0.50;;;24.50;84.60;;;-143.79;100.00;62634.88;5034238;28;20117;-59
2022/07/04 00:43:04;;;;;;;1.83;0.65;;;24.70;52.90;;;-143.79;100.00;62634.88;5034142;28;20061;-59
2022/07/04 00:45:29;;;;;;;2.45;0.47;;;24.50;84.50;;;-143.79;100.00;62634.88;5034149;28;20117;-58
2022/07/04 00:47:55;;;;;;;1.83;0.43;;;24.90;84.50;;;-143.79;100.00;62634.88;5034030;28;20037;-58
2022/07/04 00:50:22;;;;;;;1.40;0.40;;;24.90;84.70;;;-143.79;100.00;62634.88;5034120;28;20393;-58
2022/07/04 00:52:47;;;;;;;0.60;0.50;;;24.40;84.40;;;-143.79;100.00;62634.88;5032967;28;20041;-59
2022/07/04 00:55:16;;;;;;;1.27;0.40;;;24.80;84.60;;;-143.79;100.00;62634.88;5034069;28;20033;-58
2022/07/04 00:57:42;;;;;;;1.23;0.50;;;;;;;-143.79;100.00;62634.88;5034023;28;20042;-56
2022/07/04 01:00:08;;;;;;;2.03;0.40;;;;;;;-143.79;100.00;62634.88;5033927;28;20033;-58
2022/07/04 01:02:34;;;;;;;0.75;0.40;;;24.70;75.40;;;-143.79;100.00;62634.88;5033731;28;20026;-58
2022/07/04 01:04:59;;;;;;;0.63;0.40;;;24.40;84.00;;;-143.79;100.00;62634.88;5033618;28;20052;-58
2022/07/04 01:07:26;;;;;;;1.73;0.57;;;;;;;-143.79;100.00;62634.88;5032446;28;20044;-59
2022/07/04 01:09:53;;;;;;;1.23;0.40;;;24.20;84.40;;;-143.79;100.00;62634.88;5033692;28;20105;-59
2022/07/04 01:12:27;;;;;;;1.50;0.52;;;24.40;84.40;;;-143.79;100.00;62634.88;5033748;28;20045;-59
2022/07/04 01:14:53;;;;;;;1.60;0.43;;;24.80;64.90;;;-143.79;100.00;62634.88;5033586;28;20465;-59
2022/07/04 01:17:19;;;;;;;1.58;0.50;;;;;;;-143.79;100.00;62634.88;5033591;28;20098;-58
2022/07/04 01:19:44;;;;;;;1.13;0.47;;;24.10;84.50;;;-143.79;100.00;62634.88;5032284;28;20120;-58
2022/07/04 01:22:10;;;;;;;1.20;0.50;;;24.80;84.90;;;-143.79;100.00;62634.88;5033724;28;20137;-58
2022/07/04 01:24:36;;;;;;;1.50;0.30;;;24.70;84.60;;;-143.79;100.00;62634.88;5033443;28;20034;-58
2022/07/04 01:27:01;;;;;;;0.80;0.38;;;24.80;84.90;;;-143.79;100.00;62634.88;5033306;28;20087;-58
2022/07/04 01:29:27;;;;;;;1.08;0.52;;;24.70;84.60;;;-143.79;100.00;62634.88;5033438;28;20069;-60
2022/07/04 01:31:53;;;;;;;1.05;0.40;;;24.60;81.60;;;-143.79;100.00;62634.88;5033256;28;20026;-60
2022/07/04 01:34:20;;;;;;;3.28;0.55;;;24.50;61.60;;;-143.79;100.00;62634.88;5033352;28;20030;-60
2022/07/04 01:36:45;;;;;;;1.52;0.43;;;24.50;67.60;;;-143.79;100.00;62634.88;5033541;28;20032;-59
2022/07/04 01:39:11;;;;;;;1.05;0.30;;;24.50;84.40;;;-143.79;100.00;62634.88;5033205;28;20473;-60
2022/07/04 01:41:37;;;;;;;2.25;0.45;;;24.50;69.50;;;-143.79;100.00;62634.88;5033444;28;20033;-60
2022/07/04 01:44:03;;;;;;;1.08;0.50;;;;;;;-143.79;100.00;62634.88;5033079;28;20029;-60
2022/07/04 01:46:29;;;;;;;2.05;0.70;;;24.70;65.80;;;-143.79;100.00;62634.88;5033282;28;20045;-60
2022/07/04 01:48:54;;;;;;;1.95;0.70;;;24.50;84.80;;;-143.79;100.00;62634.88;5032983;28;20034;-60
2022/07/04 01:51:20;;;;;;;1.45;0.50;;;24.40;84.70;;;-143.79;100.00;62634.88;5033274;28;20041;-60
2022/07/04 01:53:46;;;;;;;1.05;0.35;;;24.60;84.80;;;-143.79;100.00;62634.88;5032854;28;20041;-60
2022/07/04 01:56:11;;;;;;;2.15;0.55;;;24.00;84.70;;;-143.79;100.00;62634.88;5032880;28;20034;-60
2022/07/04 01:58:37;;;;;;;5.88;0.88;;;24.70;85.00;;;-143.79;100.00;62634.88;5032384;28;20029;-59
2022/07/04 02:03:47;;;;;;;0.90;0.38;;;24.40;85.00;;;-143.79;100.00;62634.88;5032820;28;20044;-60
2022/07/04 02:06:13;;;;;;;2.25;0.50;;;24.40;84.80;;;-143.79;100.00;62634.88;5032622;28;20049;-59
2022/07/04 02:11:23;;;;;;;0.65;0.40;;;24.10;84.80;;;-143.79;100.00;62634.88;5032645;28;20037;-60
2022/07/04 02:13:49;;;;;;;0.75;0.40;;;24.70;85.10;;;-143.79;100.00;62634.88;5032918;28;20468;-60
2022/07/04 02:16:15;;;;;;;1.17;0.60;;;;;;;-143.79;100.00;62634.88;5032490;28;20029;-59
2022/07/04 02:18:41;;;;;;;1.42;0.60;;;24.00;85.00;;;-143.79;100.00;62634.88;5032533;28;20492;-59
2022/07/04 02:21:06;;;;;;;2.50;0.38;;;24.20;85.00;;;-143.79;100.00;62634.88;5032521;28;20036;-59
2022/07/04 02:23:32;;;;;;;0.98;0.40;;;24.40;85.00;;;-143.79;100.00;62634.88;5032589;28;20416;-59
2022/07/04 02:25:58;;;;;;;1.48;0.50;;;;;;;-143.79;100.00;62634.88;5032462;28;20030;-59
2022/07/04 02:28:24;;;;;;;1.35;0.50;;;24.40;85.00;;;-143.79;100.00;62634.88;5032540;28;20065;-59
2022/07/04 02:30:49;;;;;;;1.27;0.50;;;24.50;85.30;;;-143.79;100.00;62634.88;5032339;28;20388;-59
2022/07/04 02:33:15;;;;;;;1.55;0.40;;;24.70;83.90;;;-143.79;100.00;62634.88;5032310;28;20045;-59
2022/07/04 02:35:41;;;;;;;1.45;0.30;;;;;;;-143.79;100.00;62634.88;5032251;28;20025;-59
2022/07/04 02:38:07;;;;;;;1.75;0.68;;;;;;;-143.79;100.00;62634.88;5032180;28;20033;-59
2022/07/04 02:40:33;;;;;;;1.10;0.50;;;24.50;65.20;;;-143.79;100.00;62634.88;5032195;28;20497;-59
2022/07/04 02:42:59;;;;;;;0.98;0.40;;;;;;;-143.79;100.00;62634.88;5032549;28;20065;-60
2022/07/04 02:45:25;;;;;;;2.22;0.60;;;;;;;-143.79;100.00;62634.88;5032117;28;20365;-59
2022/07/04 02:47:51;;;;;;;1.40;0.30;;;24.10;62.00;;;-143.79;100.00;62634.88;5032279;28;20030;-60
2022/07/04 02:50:17;;;;;;;2.72;0.45;;;;;;;-143.79;100.00;62634.88;5032103;28;20044;-60
2022/07/04 02:52:43;;;;;;;1.50;0.47;;;;;;;-143.79;100.00;62634.88;5032323;28;20036;-59
2022/07/04 02:55:09;;;;;;;1.00;0.40;;;;;;;-143.79;100.00;62634.88;5032070;28;20034;-60
2022/07/04 02:57:37;;;;;;;1.50;0.50;;;;;;;-143.79;100.00;62634.88;5032026;28;20033;-59
2022/07/04 03:00:03;;;;;;;2.05;0.68;;;24.20;59.50;;;-143.79;100.00;62634.88;5032093;28;20040;-59
2022/07/04 03:02:29;;;;;;;1.13;0.40;;;24.50;84.90;;;-143.79;100.00;62634.88;5031954;28;20116;-59
2022/07/04 03:04:55;;;;;;;1.13;0.40;;;;;;;-143.79;100.00;62634.88;5031791;28;20132;-59
2022/07/04 03:07:21;;;;;;;0.50;0.32;;;;;;;-143.79;100.00;62634.88;5031935;28;20034;-59
2022/07/04 03:09:47;;;;;;;1.13;0.60;;;;;;;-143.79;100.00;62634.88;5031582;28;20496;-59
2022/07/04 03:12:13;;;;;;;3.35;0.50;;;24.40;81.50;;;-143.79;100.00;62634.88;5036033;28;20396;-59
2022/07/04 03:14:39;;;;;;;1.25;0.43;;;;;;;-143.79;100.00;62634.88;5035862;28;20044;-60
2022/07/04 03:17:05;;;;;;;0.43;0.30;;;;;;;-143.79;100.00;62634.88;5036121;28;20116;-59
2022/07/04 03:19:31;;;;;;;1.75;0.60;;;;;;;-143.79;100.00;62634.88;5035793;28;20079;-58
2022/07/04 03:21:57;;;;;;;2.53;0.60;;;24.50;74.00;;;-143.79;100.00;62634.88;5035730;28;20366;-59
2022/07/04 03:24:23;;;;;;;0.90;0.50;;;;;;;-143.79;100.00;62634.88;5035784;28;20036;-60
2022/07/04 03:26:49;;;;;;;2.35;0.40;;;;;;;-143.79;100.00;62634.88;5035523;28;20037;-60
2022/07/04 03:29:15;;;;;;;1.83;0.40;;;;;;;-143.79;100.00;62634.88;5035604;28;20040;-60
2022/07/04 03:31:41;;;;;;;0.85;0.30;;;24.00;74.40;;;-143.79;100.00;62634.88;5035803;28;20029;-60
2022/07/04 03:34:06;;;;;;;1.15;0.47;;;24.40;85.90;;;-143.79;100.00;62634.88;5035543;28;20477;-60
2022/07/04 03:36:32;;;;;;;1.40;0.32;;;24.10;85.70;;;-143.79;100.00;62634.88;5035519;28;20086;-59
2022/07/04 03:38:58;;;;;;;1.23;0.40;;;24.30;85.90;;;-143.79;100.00;62634.88;5035524;28;20436;-58
2022/07/04 03:41:23;;;;;;;1.92;0.40;;;24.40;86.00;;;-143.79;100.00;62634.88;5035391;28;20021;-58
2022/07/04 03:43:49;;;;;;;1.80;0.70;;;24.20;86.00;;;-143.79;100.00;62634.88;5035592;28;20117;-58
2022/07/04 03:46:15;;;;;;;1.83;0.65;;;24.00;66.00;;;-143.79;100.00;62634.88;5035281;28;20460;-58
2022/07/04 03:48:43;;;;;;;1.75;0.32;;;;;;;-143.79;100.00;62634.88;5035189;28;20104;-58
2022/07/04 03:51:10;;;;;;;2.35;0.60;;;;;;;-143.79;100.00;62634.88;5035125;28;20091;-59
2022/07/04 03:53:35;;;;;;;1.85;0.57;;;24.20;86.00;;;-143.79;100.00;62634.88;5035213;28;20041;-58
2022/07/04 03:56:01;;;;;;;1.60;0.40;;;23.80;85.60;;;-143.79;100.00;62634.88;5035189;28;20446;-59
2022/07/04 03:58:27;;;;;;;1.98;0.60;;;24.20;67.90;;;-143.79;100.00;62634.88;5035302;28;20033;-58
2022/07/04 04:07:09;;;;;;;1.40;0.60;;;;;;;-143.79;100.00;62634.88;5002359;28;20165;-59
2022/07/04 04:09:35;;;;;;;1.83;0.40;;;23.80;67.60;;;-143.79;100.00;62634.88;4995588;28;20062;-59
2022/07/04 04:12:01;;;;;;;0.75;0.30;;;;;;;-143.79;100.00;62634.88;4995462;28;20042;-59
2022/07/04 04:14:27;;;;;;;0.38;0.22;;;;;;;-143.79;100.00;62634.88;4995389;28;20034;-59
2022/07/04 04:16:53;;;;;;;1.17;0.47;;;24.30;55.60;;;-143.79;100.00;62634.88;4995321;28;20089;-59
2022/07/04 04:19:20;;;;;;;0.93;0.28;;;;;;;-143.79;100.00;62634.88;4995427;28;20034;-59
2022/07/04 04:21:46;;;;;;;1.45;0.47;;;24.40;68.10;;;-143.79;100.00;62634.88;4994570;28;20039;-59
2022/07/04 04:24:12;;;;;;;0.40;0.38;;;;;;;-143.79;100.00;62634.88;4995220;28;20403;-59
2022/07/04 04:26:38;;;;;;;1.58;0.73;;;;;;;-143.79;100.00;62634.88;4995111;28;20057;-59
2022/07/04 04:29:04;;;;;;;1.98;0.55;;;24.50;85.50;;;-143.79;100.00;62634.88;4995056;28;20047;-59
2022/07/04 04:31:30;;;;;;;1.55;0.43;;;24.30;63.00;;;-143.79;100.00;62634.88;4995109;28;20034;-59
2022/07/04 04:33:57;;;;;;;1.30;0.35;;;24.10;85.70;;;-143.79;100.00;62634.88;4995055;28;20038;-59
2022/07/04 04:36:23;;;;;;;1.67;0.40;;;24.20;64.00;;;-143.79;100.00;62634.88;4995082;28;20030;-59
2022/07/04 04:38:49;;;;;;;1.00;0.52;;;;;;;-143.79;100.00;62634.88;4994998;28;20049;-59
2022/07/04 04:41:16;;;;;;;1.50;0.57;;;;;;;-143.79;100.00;62634.88;4994831;28;20113;-59
2022/07/04 04:43:42;;;;;;;1.38;0.50;;;24.10;86.00;;;-143.79;100.00;62634.88;4994931;28;20045;-59
2022/07/04 04:46:09;;;;;;;1.75;0.55;;;24.20;74.60;;;-143.79;100.00;62634.88;4994874;28;20034;-58
2022/07/04 04:48:34;;;;;;;1.20;0.30;;;24.20;86.20;;;-143.79;100.00;62634.88;4994730;28;20066;-58
2022/07/04 04:51:00;;;;;;;2.58;0.50;;;24.40;86.30;;;-143.79;100.00;62634.88;4994745;28;20061;-59
2022/07/04 04:53:26;;;;;;;1.00;0.55;;;24.20;86.00;;;-143.79;100.00;62634.88;4994732;28;20125;-59
2022/07/04 04:55:53;;;;;;;1.38;0.60;;;24.10;86.00;;;-143.79;100.00;62634.88;4994723;28;20038;-59
2022/07/04 04:58:20;;;;;;;0.85;0.40;;;24.30;86.20;;;-143.79;100.00;62634.88;4994897;28;20389;-59
2022/07/04 05:00:48;;;;;;;0.73;0.35;;;23.80;85.40;;;-143.79;100.00;62634.88;4994566;28;20030;-59
2022/07/04 05:03:13;;;;;;;0.52;0.40;;;24.00;69.40;;;-143.79;100.00;62634.88;4994280;28;20050;-59
2022/07/04 05:05:39;;;;;;;2.03;0.60;;;;;;;-143.79;100.00;62634.88;4994509;28;20049;-59
2022/07/04 05:08:06;;;;;;;1.60;0.40;;;;;;;-143.79;100.00;62634.88;4994261;28;20121;-59
2022/07/04 05:10:32;;;;;;;1.95;0.40;;;;;;;-143.79;100.00;62634.88;4994361;28;20042;-59
2022/07/04 05:12:57;;;;;;;1.80;0.38;;;24.10;75.40;;;-143.79;100.00;62634.88;4994278;28;20027;-58
2022/07/04 05:15:23;;;;;;;1.00;0.40;;;;;;;-143.79;100.00;62634.88;4994373;28;20397;-58
2022/07/04 05:17:50;;;;;;;1.13;0.45;;;;;;;-143.79;100.00;62634.88;4994257;28;20026;-59
2022/07/04 05:20:16;;;;;;;0.95;0.50;;;;;;;-143.79;100.00;62634.88;4994000;28;20030;-58
2022/07/04 05:22:42;;;;;;;2.13;0.43;;;23.90;75.10;;;-143.79;100.00;62634.88;4994031;28;20038;-59
2022/07/04 05:25:08;;;;;;;0.98;0.40;;;23.70;78.10;;;-143.79;100.00;62634.88;4993885;28;20065;-58
2022/07/04 05:27:34;;;;;;;1.42;0.45;;;24.20;86.90;;;-143.79;100.00;62634.88;4993810;28;20033;-58
2022/07/04 05:30:00;;;;;;;2.88;0.60;;;;;;;-143.79;100.00;62634.88;4993796;28;20038;-59
2022/07/04 05:32:27;;;;;;;1.30;0.40;;;24.40;64.10;;;-143.79;100.00;62634.88;4993768;28;20109;-58
2022/07/04 05:34:53;;;;;;;1.27;0.57;;;24.10;86.70;;;-143.79;100.00;62634.88;4992975;28;20042;-58
2022/07/04 05:37:19;;;;;;;3.28;0.50;;;24.30;86.90;;;-143.79;100.00;62634.88;4993717;28;20046;-58
2022/07/04 05:39:44;;;;;;;0.75;0.35;;;23.50;86.20;;;-143.79;100.00;62634.88;4993424;28;20440;-58
2022/07/04 05:42:10;;;;;;;2.70;0.45;;;24.10;86.50;;;-143.79;100.00;62634.88;4993828;28;20031;-58
2022/07/04 05:44:36;;;;;;;1.63;0.50;;;24.20;86.60;;;-143.79;100.00;62634.88;4993895;28;20038;-58
2022/07/04 05:47:02;;;;;;;5.20;0.65;;;24.20;86.70;;;-143.79;100.00;62634.88;4993535;28;20038;-59
2022/07/04 05:49:28;;;;;;;1.42;0.30;;;24.30;86.70;;;-143.79;100.00;62634.88;4993885;28;20433;-59
2022/07/04 05:51:54;;;;;;;0.57;0.32;;;;;;;-143.79;100.00;62634.88;4993939;28;20085;-59
2022/07/04 05:54:20;;;;;;;2.65;0.50;;;24.30;86.80;;;-143.79;100.00;62634.88;4993483;28;20030;-58
2022/07/04 05:56:46;;;;;;;0.60;0.50;;;24.10;86.80;;;-143.79;100.00;62634.88;4993404;28;20045;-58
2022/07/04 05:59:12;;;;;;;1.33;0.60;;;24.30;86.50;;;-143.79;100.00;62634.88;4993521;28;20027;-58
2022/07/04 06:01:38;;;;;;;1.65;0.45;;;24.20;68.40;;;-143.79;100.00;62634.88;4993547;28;20034;-56
2022/07/04 06:04:04;;;;;;;0.88;0.47;;;23.80;57.60;;;-143.79;100.00;62634.88;4993554;28;20096;-58
2022/07/04 06:06:30;;;;;;;1.20;0.52;;;23.70;86.10;;;-143.79;100.00;62634.88;4993269;28;20042;-58
2022/07/04 06:08:57;;;;;;;1.25;0.40;;;23.70;54.70;;;-143.79;100.00;62634.88;4993139;28;20037;-58
2022/07/04 06:11:23;;;;;;;7.68;0.75;;;24.00;86.90;;;-143.79;100.00;62634.88;4993103;28;20030;-58
2022/07/04 06:13:49;;;;;;;3.05;0.40;;;24.10;87.00;;;-143.79;100.00;62634.88;4993082;28;20034;-57
2022/07/04 06:16:16;;;;;;;2.92;0.70;;;24.10;87.10;;;-143.79;100.00;62634.88;4993304;28;20030;-57
2022/07/04 06:18:42;;;;;;;2.58;0.52;;;24.00;54.80;;;-143.79;100.00;62634.88;4993005;28;20535;-58
2022/07/04 06:21:08;;;;;;;1.00;0.40;;;24.20;86.60;;;-143.79;100.00;62634.88;4991759;28;20038;-57
2022/07/04 06:23:34;;;;;;;1.70;0.60;;;24.30;87.90;;;-143.79;100.00;62634.88;4992885;28;20092;-58
2022/07/04 06:26:00;;;;;;;3.33;0.45;;;24.40;87.60;;;-143.79;100.00;62634.88;4992947;28;20117;-58
2022/07/04 06:28:27;;;;;;;1.33;0.70;;;24.10;55.40;;;-143.79;100.00;62634.88;4992876;28;20117;-57
2022/07/04 06:30:52;;;;;;;1.25;0.52;;;24.00;87.80;;;-143.79;100.00;62634.88;4992847;28;20416;-58
2022/07/04 06:33:18;;;;;;;4.22;0.70;;;24.30;88.40;;;-143.79;100.00;62634.88;4992723;28;20030;-57
2022/07/04 06:35:45;;;;;;;1.33;0.60;;;24.00;88.50;;;-143.79;100.00;62634.88;4992961;28;20038;-55
2022/07/04 06:38:15;;;;;;;2.15;0.60;;;23.80;88.30;;;-143.79;100.00;62634.88;4993206;28;20449;-55
2022/07/04 06:40:41;;;;;;;1.42;0.75;;;23.90;88.60;;;-143.79;100.00;62634.88;4993174;28;20092;-55
2022/07/04 06:43:08;;;;;;;1.95;0.85;;;;;;;-143.79;100.00;62634.88;4992895;28;20035;-56
2022/07/04 06:45:34;;;;;;;1.38;0.57;;;;;;;-143.79;100.00;62634.88;4992606;28;20056;-55
2022/07/04 06:48:01;;;;;;;2.70;0.43;;;23.90;88.10;;;-143.79;100.00;62634.88;4992955;28;20117;-55
2022/07/04 06:50:27;;;;;;;3.45;1.00;;;24.20;88.40;;;-143.79;100.00;62634.88;4992970;28;20038;-56
2022/07/04 06:52:52;;;;;;;2.03;0.73;;;23.90;88.80;;;-143.79;100.00;62634.88;4993272;28;20034;-56
2022/07/04 06:55:18;;;;;;;1.98;0.70;;;24.10;88.60;;;-143.79;100.00;62634.88;4992969;28;20400;-57
2022/07/04 06:57:44;;;;;;;2.67;0.65;;;24.30;88.70;;;-143.79;100.00;62634.88;4992847;28;20034;-56
2022/07/04 07:00:10;;;;;;;1.95;0.35;;;24.10;86.30;;;-143.79;100.00;62634.88;4992685;28;20035;-55
2022/07/04 07:02:37;;;;;;;1.23;0.60;;;24.10;55.90;;;-143.79;100.00;62634.88;4992487;28;20050;-56
2022/07/04 07:05:04;;;;;;;1.95;0.63;;;24.00;88.20;;;-143.79;100.00;62634.88;4992935;28;20042;-55
2022/07/04 07:07:30;;;;;;;0.98;0.40;;;24.10;88.30;;;-143.79;100.00;62634.88;4992742;28;20038;-55
2022/07/04 07:09:56;;;;;;;1.45;0.45;;;24.20;88.40;;;-143.79;100.00;62634.88;4992800;28;20039;-56
2022/07/04 07:12:23;;;;;;;2.35;0.60;;;24.00;88.20;;;-143.79;100.00;62634.88;4992687;28;20045;-56
2022/07/04 07:14:50;;;;;;;2.05;0.80;;;24.00;88.10;;;-143.79;100.00;62634.88;4992632;28;20034;-56
2022/07/04 07:17:16;;;;;;;3.33;0.60;;;23.90;88.10;;;-143.79;100.00;62634.88;4991366;28;20485;-56
2022/07/04 07:19:43;;;;;;;1.88;0.65;;;24.10;71.40;;;-143.79;100.00;62634.88;4992647;28;20038;-55
2022/07/04 07:22:11;;;;;;;4.28;0.60;;;24.10;55.90;;;-143.79;100.00;62634.88;4991463;28;20070;-55
2022/07/04 07:24:36;;;;;;;1.23;0.50;;;24.10;88.70;;;-143.79;100.00;62634.88;4992943;28;20026;-55
2022/07/04 07:27:03;;;;;;;2.92;0.70;;;23.60;88.40;;;-143.79;100.00;62634.88;4992834;28;20477;-54
2022/07/04 07:29:29;;;;;;;1.80;0.60;;;23.70;88.00;;;-143.79;100.00;62634.88;4992579;28;20615;-54
2022/07/04 07:31:55;;;;;;;1.38;0.60;;;24.20;88.50;;;-143.79;100.00;62634.88;4992617;28;20066;-53
2022/07/04 07:34:20;;;;;;;4.18;0.68;;;24.20;88.90;;;-143.79;100.00;62634.88;4992805;28;20121;-52
2022/07/04 07:36:46;;;;;;;2.15;0.45;;;24.10;89.10;;;-143.79;100.00;62634.88;4992863;28;20400;-51
2022/07/04 07:39:12;;;;;;;7.88;0.50;;;23.90;88.50;;;-143.79;100.00;62634.88;4992557;28;20038;-54
2022/07/04 07:41:38;;;;;;;1.95;0.50;;;23.90;67.70;;;-143.79;100.00;62634.88;4990696;28;20038;-53
2022/07/04 07:44:03;;;;;;;1.80;0.80;;;23.90;61.90;;;-143.79;100.00;62634.88;4992506;28;20057;-54
2022/07/04 07:46:30;;;;;;;3.33;0.50;;;;;;;-143.79;100.00;62634.88;4992477;28;20038;-54
2022/07/04 07:48:56;;;;;;;3.45;0.75;;;;;;;-143.79;100.00;62634.88;4992249;28;20038;-53
2022/07/04 07:51:22;;;;;;;2.67;0.60;;;;;;;-143.79;100.00;62634.88;4992647;28;20109;-55
2022/07/04 07:53:47;;;;;;;1.15;0.47;;;24.00;81.30;;;-143.79;100.00;62634.88;4992450;28;20042;-55
2022/07/04 07:56:14;;;;;;;3.03;0.70;;;;;;;-143.79;100.00;62634.88;4992468;28;20034;-55
2022/07/04 07:58:40;;;;;;;2.08;0.75;;;;;;;-143.79;100.00;62634.88;4995930;28;20125;-53
2022/07/04 08:01:06;;;;;;;3.13;0.60;;;;;;;-143.79;100.00;62634.88;4994646;28;20488;-54
2022/07/04 08:06:16;;;;;;;1.60;0.50;;;24.20;77.10;;;-143.79;100.00;62634.88;4995875;28;20093;-54
2022/07/04 08:08:43;;;;;;;1.35;0.63;;;23.90;87.60;;;-143.79;100.00;62634.88;4995640;28;20477;-55
2022/07/04 08:11:10;;;;;;;2.45;0.60;;;24.30;88.10;;;-143.79;100.00;62634.88;4995715;28;20038;-53
2022/07/04 08:13:37;;;;;;;1.83;0.73;;;24.70;87.90;;;-143.79;100.00;62634.88;4995676;28;20031;-53
2022/07/04 08:16:03;;;;;;;1.52;0.73;;;24.10;87.90;;;-143.79;100.00;62634.88;4995562;28;20085;-55
2022/07/04 08:18:29;;;;;;;2.88;0.70;;;24.00;87.90;;;-143.79;100.00;62634.88;4995924;28;20023;-55
2022/07/04 08:20:55;;;;;;;1.70;0.68;;;24.20;87.60;;;-143.79;100.00;62634.88;4995557;28;20448;-52
2022/07/04 08:23:20;;;;;;;1.95;0.70;;;24.30;87.70;;;-143.79;100.00;62634.88;4994189;28;20038;-55
2022/07/04 08:25:46;;;;;;;1.85;0.60;;;24.30;87.80;;;-143.79;100.00;62634.88;4995299;28;20030;-54
2022/07/04 08:28:12;;;;;;;1.40;0.40;;;24.10;87.30;;;-143.79;100.00;62634.88;4995292;28;20042;-55
2022/07/04 08:30:38;;;;;;;1.45;0.47;;;;;;;-143.79;100.00;62634.88;4995088;28;20057;-54
2022/07/04 08:33:04;;;;;;;1.15;0.65;;;24.00;82.10;;;-143.79;100.00;62634.88;4995123;28;20033;-55
2022/07/04 08:35:30;;;;;;;1.25;0.63;;;;;;;-143.79;100.00;62634.88;4995170;28;20042;-55
2022/07/04 08:37:56;;;;;;;2.33;0.50;;;24.20;77.30;;;-143.79;100.00;62634.88;4995136;28;20034;-57
2022/07/04 08:40:23;;;;;;;2.50;0.63;;;24.30;67.30;;;-143.79;100.00;62634.88;4995158;28;20400;-55
2022/07/04 08:42:49;;;;;;;2.92;0.70;;;24.20;87.40;;;-143.79;100.00;62634.88;4995236;28;20038;-55
2022/07/04 08:45:17;;;;;;;2.65;0.63;;;24.20;55.20;;;-143.79;100.00;62634.88;4995051;28;20465;-55
2022/07/04 08:47:46;;;;;;;1.88;0.68;;;24.00;87.10;;;-143.79;100.00;62634.88;4995002;28;20053;-56
2022/07/04 08:50:22;;;;;;;2.20;0.70;;;24.00;86.70;;;-143.79;100.00;62634.88;4993850;28;20037;-54
2022/07/04 08:52:59;;;;;;;2.05;0.60;;;23.70;86.60;;;-143.79;100.00;62634.88;4993550;28;20061;-54
2022/07/04 08:58:26;;;;;;;1.38;0.80;;;24.20;86.60;;;-143.79;100.00;62634.88;4995148;28;20045;-55
2022/07/04 09:00:55;;;;;;;4.35;0.95;;;25.70;55.70;;;-143.79;100.00;62634.88;4994689;28;20026;-53
2022/07/04 09:03:21;;;;;;;1.52;0.50;;;24.40;87.00;;;-143.79;100.00;62634.88;4993311;28;20053;-55
2022/07/04 09:05:47;;;;;;;4.95;0.68;;;24.40;86.60;;;-143.79;100.00;62634.88;4994695;28;20034;-52
2022/07/04 09:08:13;;;;;;;1.63;0.60;;;24.50;86.70;;;-143.79;100.00;62634.88;4994345;28;20042;-54
2022/07/04 09:10:39;;;;;;;2.38;0.90;;;24.20;86.40;;;-143.79;100.00;62634.88;4994538;28;20034;-54
2022/07/04 09:13:08;;;;;;;1.20;0.68;;;24.70;86.70;;;-143.79;100.00;62634.88;4994366;28;20039;-54
2022/07/04 09:15:34;;;;;;;10.20;0.50;;;24.50;61.80;;;-143.79;100.00;62634.88;4994337;28;20046;-54
2022/07/04 09:18:01;;;;;;;1.92;0.60;;;24.60;66.20;;;-143.79;100.00;62634.88;4994224;28;20370;-54
2022/07/04 09:20:30;;;;;;;5.07;0.80;;;24.70;74.40;;;-143.79;100.00;62634.88;4994342;28;20173;-53
2022/07/04 09:22:56;;;;;;;2.00;0.50;;;;;;;-143.79;100.00;62634.88;4994319;28;20117;-51
2022/07/04 09:25:24;;;;;;;1.73;0.60;;;24.60;65.30;;;-143.79;100.00;62634.88;4994220;28;20523;-53
2022/07/04 09:27:55;;;;;;;1.90;0.60;;;24.70;85.80;;;-143.79;100.00;62634.88;4994132;28;20046;-53
2022/07/04 09:30:27;;;;;;;3.70;1.00;;;24.50;54.60;;;-143.79;100.00;62634.88;4994431;28;20039;-55
2022/07/04 09:33:04;;;;;;;2.67;0.90;;;24.50;64.10;;;-143.79;100.00;62634.88;4994492;28;20026;-51
2022/07/04 09:35:31;;;;;;;5.22;1.48;;;24.30;87.20;;;-143.79;100.00;62634.88;4994028;28;20414;-53
2022/07/04 09:38:04;;;;;;;5.13;1.20;;;24.50;87.70;;;-143.79;100.00;62634.88;4994071;28;20373;-53
2022/07/04 09:43:20;;;;;;;6.32;1.00;;;23.90;87.90;;;-143.79;100.00;62634.88;4994325;28;20041;-54
2022/07/04 09:46:01;;;;;;;3.85;1.10;;;24.60;70.40;;;-143.79;100.00;62634.88;4993899;28;20084;-54
2022/07/04 09:48:49;;;;;;;3.72;1.10;;;24.90;88.90;;;-143.79;100.00;62634.88;4993809;28;20034;-54
2022/07/04 09:51:21;;;;;;;3.78;1.10;;;;;;;-143.79;100.00;62634.88;4993902;28;20382;-54
2022/07/04 09:53:47;;;;;;;3.85;1.40;;;;;;;-143.79;100.00;62634.88;4992586;28;20027;-52
2022/07/04 09:56:13;;;;;;;4.55;0.93;;;24.10;84.90;;;-143.79;100.00;62634.88;4993887;28;20037;-55
2022/07/04 09:58:40;;;;;;;3.67;1.02;;;24.20;86.40;;;-143.79;100.00;62634.88;4993645;28;20026;-56
2022/07/04 10:01:06;;;;;;;3.25;0.82;;;;;;;-143.79;100.00;62634.88;4975988;28;20042;-54
2022/07/04 10:03:34;;;;;;;2.33;0.82;;;24.10;88.40;;;-143.79;100.00;62634.88;4993390;28;20121;-56
2022/07/04 10:06:15;;;;;;;1.52;1.00;;;24.60;79.60;;;-143.79;100.00;62634.88;4993511;28;20050;-54
2022/07/04 10:08:43;;;;;;;2.47;0.90;;;24.50;55.80;;;-143.79;100.00;62634.88;4992562;28;20429;-54
2022/07/04 10:11:10;;;;;;;2.83;0.73;;;24.60;86.20;;;-143.79;100.00;62634.88;4993494;28;20034;-58
2022/07/04 10:13:37;;;;;;;2.17;0.70;;;24.60;83.60;;;-143.79;100.00;62634.88;4993284;28;20038;-58
2022/07/04 10:16:04;;;;;;;2.28;0.73;;;;;;;-143.79;100.00;62634.88;4993184;28;20038;-58
2022/07/04 10:18:30;;;;;;;2.92;0.90;;;24.90;58.10;;;-143.79;100.00;62634.88;4993056;28;20500;-58
2022/07/04 10:20:57;;;;;;;2.42;0.85;;;24.50;85.60;;;-143.79;100.00;62634.88;4992460;28;20489;-58
2022/07/04 10:23:29;;;;;;;1.52;0.65;;;24.70;85.00;;;-143.79;100.00;62634.88;4991749;28;20058;-58
2022/07/04 10:25:56;;;;;;;2.05;0.63;;;;;;;-143.79;100.00;62634.88;4993298;28;20060;-58
2022/07/04 10:28:22;;;;;;;5.80;0.80;;;;;;;-143.79;100.00;62634.88;4992797;28;20038;-58
2022/07/04 10:30:53;;;;;;;1.30;0.60;;;24.60;68.00;;;-143.79;100.00;62634.88;4992854;28;20034;-58
2022/07/04 10:33:27;;;;;;;1.20;0.50;;;24.60;84.00;;;-143.79;100.00;62634.88;4975182;28;20510;-58
2022/07/04 10:36:02;;;;;;;5.00;0.80;;;24.60;53.30;;;-143.79;100.00;62634.88;4992857;28;20049;-58